Terminal Aerodrome Forecast
Issued by NWS Grand Forks, ND

Home | Current Version | Previous Version | Text Only | Print | Product List | Glossary On
Versions: 1 2 3 4 5 6 7 8 9 10 11 12 13 14 15 16 17
776
FTUS43 KFGF 250206 AAA
TAFGFK
TAF AMD
KGFK 250206Z 2502/2524 35007KT P6SM OVC008
     FM251500 34011KT P6SM OVC008
     FM251800 34014G19KT P6SM OVC012=

USA.gov is the U.S. government's official web portal to all federal, state and local government web resources and services.